createdAt,value
2022-09-06T00:02:06.819Z,101646.38
2022-09-06T00:04:38.472Z,101652.47
2022-09-06T00:07:08.633Z,101652.81
2022-09-06T00:09:40.720Z,101644.78
2022-09-06T00:12:12.041Z,101634.19
2022-09-06T00:14:47.120Z,101640.28
2022-09-06T00:17:18.379Z,101638.22
2022-09-06T00:19:48.610Z,101638.50
2022-09-06T00:22:19.385Z,101640.09
2022-09-06T00:24:49.690Z,101636.34
2022-09-06T00:27:18.121Z,101632.72
2022-09-06T00:29:47.551Z,101630.16
2022-09-06T00:32:19.276Z,101634.66
2022-09-06T00:34:47.397Z,101633.56
2022-09-06T00:37:16.085Z,101639.72
2022-09-06T00:39:44.021Z,101633.56
2022-09-06T00:42:13.761Z,101632.84
2022-09-06T00:44:42.128Z,101634.56
2022-09-06T00:47:11.790Z,101631.16
2022-09-06T00:49:45.466Z,101627.28
2022-09-06T00:52:16.724Z,101628.50
2022-09-06T00:54:45.105Z,101635.53
2022-09-06T00:57:14.761Z,101637.63
2022-09-06T00:59:44.008Z,101641.53
2022-09-06T01:02:13.853Z,101643.69
2022-09-06T01:04:45.133Z,101651.81
2022-09-06T01:07:24.826Z,101655.00
2022-09-06T01:10:09.882Z,101647.22
2022-09-06T01:12:47.179Z,101649.53
2022-09-06T01:15:25.832Z,101648.56
2022-09-06T01:18:08.145Z,101665.56
2022-09-06T01:20:46.207Z,101663.78
2022-09-06T01:24:04.392Z,101651.72
2022-09-06T01:27:07.132Z,101646.16
2022-09-06T01:29:48.031Z,101639.50
2022-09-06T01:32:25.158Z,101643.22
2022-09-06T01:34:58.879Z,101647.84
2022-09-06T01:37:32.477Z,101656.69
2022-09-06T01:40:02.642Z,101644.78
2022-09-06T01:42:34.453Z,101643.84
2022-09-06T01:45:12.897Z,101631.72
2022-09-06T01:47:51.962Z,101634.59
2022-09-06T01:50:36.658Z,101638.81
2022-09-06T01:53:17.988Z,101628.00
2022-09-06T01:55:59.996Z,101624.47
2022-09-06T01:58:47.441Z,101637.09
2022-09-06T02:01:26.728Z,101625.06
2022-09-06T02:04:03.156Z,101619.50
2022-09-06T02:06:39.732Z,101622.28
2022-09-06T02:09:13.620Z,101618.41
2022-09-06T02:11:48.726Z,101618.63
2022-09-06T02:14:24.417Z,101621.19
2022-09-06T02:16:59.976Z,101615.38
2022-09-06T02:19:39.152Z,101603.34
2022-09-06T02:22:13.522Z,101613.41
2022-09-06T02:24:46.518Z,101611.97
2022-09-06T02:27:17.659Z,101618.41
2022-09-06T02:29:47.568Z,101617.31
2022-09-06T02:32:24.181Z,101620.59
2022-09-06T02:34:57.404Z,101611.38
2022-09-06T02:37:27.802Z,101607.97
2022-09-06T02:39:58.519Z,101606.03
2022-09-06T02:42:28.506Z,101608.22
2022-09-06T02:44:58.079Z,101608.81
2022-09-06T02:47:31.915Z,101615.50
2022-09-06T02:50:04.023Z,101603.75
2022-09-06T02:52:35.561Z,101614.06
2022-09-06T02:55:05.969Z,101602.03
2022-09-06T02:57:38.403Z,101600.38
2022-09-06T03:00:09.681Z,101598.41
2022-09-06T03:02:41.914Z,101600.09
2022-09-06T03:05:14.528Z,101596.44
2022-09-06T03:07:43.894Z,101586.91
2022-09-06T03:10:12.818Z,101592.72
2022-09-06T03:12:45.433Z,101583.50
2022-09-06T03:15:16.202Z,101584.34
2022-09-06T03:17:49.346Z,101577.91
2022-09-06T03:20:21.198Z,101576.22
2022-09-06T03:22:52.504Z,101573.69
2022-09-06T03:25:22.961Z,101572.25
2022-09-06T03:27:51.415Z,101573.09
2022-09-06T03:30:19.746Z,101564.50
2022-09-06T03:32:49.217Z,101560.72
2022-09-06T03:35:17.382Z,101558.44
2022-09-06T03:37:45.511Z,101564.88
2022-09-06T03:40:14.049Z,101556.50
2022-09-06T03:42:42.894Z,101560.38
2022-09-06T03:45:11.388Z,101551.44
2022-09-06T03:47:39.790Z,101560.88
2022-09-06T03:50:10.269Z,101558.34
2022-09-06T03:52:38.490Z,101569.03
2022-09-06T03:55:08.316Z,101566.72
2022-09-06T03:57:36.714Z,101561.38
2022-09-06T04:00:06.799Z,101561.88
2022-09-06T04:02:39.756Z,101563.81
2022-09-06T04:05:10.866Z,101556.78
2022-09-06T04:07:39.867Z,101561.53
2022-09-06T04:10:11.407Z,101553.03
2022-09-06T04:12:41.750Z,101563.38
2022-09-06T04:15:11.717Z,101561.31
2022-09-06T04:17:41.731Z,101572.47
2022-09-06T04:20:13.634Z,101562.38
2022-09-06T04:22:45.193Z,101571.75
2022-09-06T04:25:17.223Z,101569.22
2022-09-06T04:27:47.154Z,101573.09
2022-09-06T04:30:19.755Z,101585.81
2022-09-06T04:32:50.262Z,101593.44
2022-09-06T04:35:24.085Z,101592.38
2022-09-06T04:37:55.451Z,101595.41
2022-09-06T04:40:27.287Z,101589.22
2022-09-06T04:42:57.737Z,101603.41
2022-09-06T04:45:28.806Z,101596.66
2022-09-06T04:48:02.331Z,101601.09
2022-09-06T04:50:35.853Z,101600.72
2022-09-06T04:53:08.140Z,101604.25
2022-09-06T04:55:38.264Z,101600.34
2022-09-06T04:58:09.305Z,101608.47
2022-09-06T05:00:41.822Z,101623.28
2022-09-06T05:03:13.773Z,101612.03
2022-09-06T05:05:44.369Z,101623.41
2022-09-06T05:08:13.415Z,101615.03
2022-09-06T05:10:44.485Z,101614.19
2022-09-06T05:13:15.201Z,101611.78
2022-09-06T05:15:47.133Z,101614.31
2022-09-06T05:18:17.212Z,101608.25
2022-09-06T05:20:54.518Z,101610.56
2022-09-06T05:23:25.555Z,101604.97
2022-09-06T05:25:57.537Z,101611.41
2022-09-06T05:28:29.659Z,101605.34
2022-09-06T05:31:10.797Z,101613.00
2022-09-06T05:33:44.716Z,101613.97
2022-09-06T05:36:16.739Z,101608.41
2022-09-06T05:38:46.130Z,101610.69
2022-09-06T05:41:17.335Z,101617.84
2022-09-06T05:43:49.785Z,101603.19
2022-09-06T05:46:21.587Z,101598.44
2022-09-06T05:48:55.894Z,101609.34
2022-09-06T05:51:27.666Z,101595.41
2022-09-06T05:53:58.439Z,101602.91
2022-09-06T05:56:27.297Z,101603.41
2022-09-06T05:58:56.737Z,101602.22
2022-09-06T06:01:28.811Z,101597.91
2022-09-06T06:04:00.913Z,101613.97
2022-09-06T06:06:37.230Z,101619.06
2022-09-06T06:09:10.045Z,101619.06
2022-09-06T06:11:40.971Z,101615.78
2022-09-06T06:14:12.061Z,101623.28
2022-09-06T06:16:43.434Z,101620.50
2022-09-06T06:19:15.086Z,101612.25
2022-09-06T06:21:47.631Z,101609.34
2022-09-06T06:24:23.855Z,101609.19
2022-09-06T06:26:53.930Z,101615.59
2022-09-06T06:29:23.222Z,101608.06
2022-09-06T06:31:51.808Z,101606.69
2022-09-06T06:34:22.766Z,101598.91
2022-09-06T06:36:53.856Z,101600.47
2022-09-06T06:39:23.702Z,101595.22
2022-09-06T06:41:58.550Z,101601.03
2022-09-06T06:44:45.405Z,101595.69
2022-09-06T06:47:17.246Z,101585.28
2022-09-06T06:49:46.450Z,101589.16
2022-09-06T06:52:16.483Z,101581.88
2022-09-06T06:54:44.774Z,101576.19
2022-09-06T06:57:14.158Z,101573.03
2022-09-06T06:59:45.746Z,101575.66
2022-09-06T07:02:17.924Z,101572.59
2022-09-06T07:04:51.110Z,101575.16
2022-09-06T07:07:32.287Z,101581.19
2022-09-06T07:12:52.908Z,101607.44
2022-09-06T07:15:21.627Z,101611.47
2022-09-06T07:17:54.197Z,101611.41
2022-09-06T07:20:27.604Z,101606.44
2022-09-06T07:25:59.098Z,101594.41
2022-09-06T07:28:28.189Z,101588.06
2022-09-06T07:30:57.007Z,101582.50
2022-09-06T07:33:25.759Z,101585.88
2022-09-06T07:35:58.251Z,101581.16
2022-09-06T07:38:29.269Z,101574.25
2022-09-06T07:40:59.357Z,101575.56
2022-09-06T07:43:29.255Z,101579.88
2022-09-06T07:46:05.213Z,101584.75
2022-09-06T07:48:35.699Z,101588.22
2022-09-06T07:51:06.130Z,101588.44
2022-09-06T07:53:37.117Z,101582.59
2022-09-06T07:56:08.307Z,101582.81
2022-09-06T07:58:42.175Z,101584.59
2022-09-06T08:01:30.189Z,101583.13
2022-09-06T08:04:04.546Z,101590.41
2022-09-06T08:09:35.664Z,101587.84
2022-09-06T08:12:07.929Z,101586.91
2022-09-06T08:14:39.161Z,101586.22
2022-09-06T08:17:14.251Z,101588.75
2022-09-06T08:19:45.349Z,101588.66
2022-09-06T08:22:17.230Z,101579.25
2022-09-06T08:24:48.923Z,101585.19
2022-09-06T08:27:18.878Z,101587.03
2022-09-06T08:29:49.317Z,101583.78
2022-09-06T08:32:20.047Z,101577.94
2022-09-06T08:34:48.737Z,101579.16
2022-09-06T08:37:20.960Z,101582.31
2022-09-06T08:39:54.600Z,101584.09
2022-09-06T08:42:23.950Z,101591.81
2022-09-06T08:44:56.798Z,101581.88
2022-09-06T08:47:26.274Z,101579.03
2022-09-06T08:49:58.089Z,101583.25
2022-09-06T08:53:17.309Z,101580.56
2022-09-06T08:55:54.314Z,101583.50
2022-09-06T08:58:35.814Z,101595.31
2022-09-06T09:01:08.360Z,101597.50
2022-09-06T09:03:37.953Z,101591.47
2022-09-06T09:06:10.399Z,101595.31
2022-09-06T09:08:48.216Z,101596.63
2022-09-06T09:11:20.121Z,101599.22
2022-09-06T09:13:56.087Z,101592.34
2022-09-06T09:16:25.257Z,101589.69
2022-09-06T09:18:56.363Z,101590.66
2022-09-06T09:21:30.718Z,101589.13
2022-09-06T09:24:04.610Z,101591.59
2022-09-06T09:26:40.432Z,101594.47
2022-09-06T09:29:11.676Z,101590.03
2022-09-06T09:31:42.076Z,101594.31
2022-09-06T09:34:27.422Z,101585.19
2022-09-06T09:40:02.639Z,101586.53
2022-09-06T09:42:35.139Z,101581.22
2022-09-06T09:45:05.792Z,101577.00
2022-09-06T09:47:34.843Z,101574.66
2022-09-06T09:50:22.342Z,101580.34
2022-09-06T09:52:50.638Z,101581.81
2022-09-06T09:55:29.230Z,101582.56
2022-09-06T09:58:01.313Z,101579.41
2022-09-06T10:00:40.666Z,101580.50
2022-09-06T10:03:16.103Z,101588.59
2022-09-06T10:06:02.582Z,101587.16
2022-09-06T10:08:34.288Z,101581.81
2022-09-06T10:11:10.525Z,101576.59
2022-09-06T10:13:45.581Z,101581.69
2022-09-06T10:16:19.742Z,101582.94
2022-09-06T10:18:58.721Z,101581.59
2022-09-06T10:21:35.514Z,101576.97
2022-09-06T10:24:30.425Z,101584.16
2022-09-06T10:27:08.460Z,101577.94
2022-09-06T10:29:48.924Z,101574.53
2022-09-06T10:32:41.936Z,101569.81
2022-09-06T10:35:22.576Z,101560.38
2022-09-06T10:38:16.736Z,101557.59
2022-09-06T10:41:08.393Z,101561.94
2022-09-06T10:43:52.057Z,101564.00
2022-09-06T10:46:30.671Z,101559.91
2022-09-06T10:49:00.352Z,101551.28
2022-09-06T10:51:43.645Z,101545.34
2022-09-06T10:54:16.741Z,101541.31
2022-09-06T10:56:56.497Z,101548.84
2022-09-06T11:02:18.823Z,101542.56
2022-09-06T11:10:41.287Z,101530.97
2022-09-06T11:13:18.804Z,101534.00
2022-09-06T11:15:54.937Z,101530.13
2022-09-06T11:18:32.925Z,101538.97
2022-09-06T11:21:29.310Z,101533.09
2022-09-06T11:24:14.144Z,101527.47
2022-09-06T11:27:02.781Z,101532.06
2022-09-06T11:29:34.781Z,101529.88
2022-09-06T11:34:54.577Z,101524.50
2022-09-06T11:37:34.237Z,101514.72
2022-09-06T11:40:29.615Z,101515.63
2022-09-06T11:43:16.844Z,101513.34
2022-09-06T11:45:51.058Z,101513.34
2022-09-06T11:48:39.105Z,101517.59
2022-09-06T11:51:12.575Z,101509.38
2022-09-06T11:54:10.378Z,101509.72
2022-09-06T11:56:49.011Z,101506.56
2022-09-06T11:59:33.521Z,101517.00
2022-09-06T12:02:04.399Z,101506.91
2022-09-06T12:05:14.413Z,101490.91
2022-09-06T12:08:20.525Z,101497.69
2022-09-06T12:10:57.058Z,101492.84
2022-09-06T12:13:55.798Z,101492.28
2022-09-06T12:16:25.720Z,101496.59
2022-09-06T12:18:57.882Z,101486.94
2022-09-06T12:21:46.129Z,101490.69
2022-09-06T12:24:57.862Z,101486.22
2022-09-06T12:27:30.527Z,101491.63
2022-09-06T12:30:01.818Z,101488.59
2022-09-06T12:32:37.273Z,101490.59
2022-09-06T12:37:58.461Z,101487.44
2022-09-06T12:40:34.190Z,101484.03
2022-09-06T12:43:05.475Z,101488.03
2022-09-06T12:45:34.240Z,101484.38
2022-09-06T12:48:08.689Z,101492.63
2022-09-06T12:50:37.899Z,101479.16
2022-09-06T12:53:25.679Z,101461.13
2022-09-06T12:56:07.093Z,101465.22
2022-09-06T12:58:39.002Z,101470.78
2022-09-06T13:01:14.962Z,101463.63
2022-09-06T13:03:49.371Z,101464.03
2022-09-06T13:06:28.021Z,101457.63
2022-09-06T13:09:02.061Z,101455.94
2022-09-06T13:11:38.635Z,101467.44
2022-09-06T13:14:14.457Z,101454.88
2022-09-06T13:16:46.395Z,101450.66
2022-09-06T13:19:19.345Z,101449.66
2022-09-06T13:21:50.475Z,101447.13
2022-09-06T13:24:21.037Z,101447.44
2022-09-06T13:26:56.059Z,101450.53
2022-09-06T13:29:30.366Z,101448.59
2022-09-06T13:32:05.751Z,101446.69
2022-09-06T13:34:58.751Z,101448.38
2022-09-06T13:37:32.101Z,101440.28
2022-09-06T13:40:05.784Z,101441.41
2022-09-06T13:42:38.148Z,101440.00
2022-09-06T13:45:27.235Z,101439.13
2022-09-06T13:48:19.347Z,101435.19
2022-09-06T13:50:50.041Z,101440.47
2022-09-06T13:53:21.121Z,101435.97
2022-09-06T13:55:50.011Z,101426.47
2022-09-06T13:58:22.417Z,101425.34
2022-09-06T14:00:54.675Z,101424.50
2022-09-06T14:03:29.129Z,101421.94
2022-09-06T14:06:01.965Z,101423.09
2022-09-06T14:08:49.682Z,101416.91
2022-09-06T14:11:22.225Z,101426.47
2022-09-06T14:13:55.604Z,101423.97
2022-09-06T14:16:26.649Z,101412.47
2022-09-06T14:18:58.216Z,101415.88
2022-09-06T14:21:30.044Z,101409.97
2022-09-06T14:24:04.066Z,101410.25
2022-09-06T14:26:34.214Z,101402.63
2022-09-06T14:29:07.537Z,101409.91
2022-09-06T14:31:36.857Z,101413.00
2022-09-06T14:34:06.413Z,101411.31
2022-09-06T14:36:35.637Z,101411.22
2022-09-06T14:39:07.158Z,101403.34
2022-09-06T14:41:39.877Z,101404.75
2022-09-06T14:44:13.103Z,101401.72
2022-09-06T14:46:42.960Z,101398.13
2022-09-06T14:49:11.769Z,101394.78
2022-09-06T14:51:42.601Z,101395.63
2022-09-06T14:54:15.182Z,101384.13
2022-09-06T14:56:45.018Z,101381.31
2022-09-06T14:59:16.423Z,101385.78
2022-09-06T15:01:45.358Z,101396.06
2022-09-06T15:04:15.032Z,101391.19
2022-09-06T15:06:47.535Z,101390.69
2022-09-06T15:09:17.810Z,101381.56
2022-09-06T15:11:49.289Z,101372.28
2022-09-06T15:14:21.856Z,101368.41
2022-09-06T15:16:56.036Z,101357.72
2022-09-06T15:19:39.068Z,101346.50
2022-09-06T15:22:09.638Z,101345.09
2022-09-06T15:24:39.056Z,101343.97
2022-09-06T15:27:08.860Z,101353.22
2022-09-06T15:29:40.392Z,101352.09
2022-09-06T15:32:10.415Z,101348.22
2022-09-06T15:34:40.253Z,101352.06
2022-09-06T15:37:12.411Z,101342.63
2022-09-06T15:39:43.503Z,101335.22
2022-09-06T15:42:15.161Z,101337.84
2022-09-06T15:44:45.559Z,101335.06
2022-09-06T15:47:14.837Z,101330.69
2022-09-06T15:49:44.335Z,101321.81
2022-09-06T15:52:13.852Z,101322.31
2022-09-06T15:55:01.325Z,101310.63
2022-09-06T15:57:31.183Z,101306.88
2022-09-06T16:00:02.300Z,101307.63
2022-09-06T16:02:33.841Z,101306.63
2022-09-06T16:05:07.271Z,101311.81
2022-09-06T16:07:39.624Z,101309.31
2022-09-06T16:10:11.950Z,101316.97
2022-09-06T16:12:45.493Z,101321.81
2022-09-06T16:15:20.289Z,101314.38
2022-09-06T16:17:50.028Z,101330.00
2022-09-06T16:20:20.075Z,101320.28
2022-09-06T16:22:50.893Z,101324.28
2022-09-06T16:25:20.843Z,101327.47
2022-09-06T16:27:50.538Z,101317.16
2022-09-06T16:30:22.827Z,101329.00
2022-09-06T16:32:52.491Z,101321.19
2022-09-06T16:35:24.101Z,101318.41
2022-09-06T16:37:54.170Z,101321.81
2022-09-06T16:40:25.261Z,101313.44
2022-09-06T16:42:56.199Z,101319.66
2022-09-06T16:45:28.954Z,101325.03
2022-09-06T16:47:58.752Z,101320.03
2022-09-06T16:50:28.593Z,101316.38
2022-09-06T16:53:01.031Z,101322.56
2022-09-06T16:55:31.101Z,101318.34
2022-09-06T16:58:01.929Z,101321.19
2022-09-06T17:00:41.940Z,101318.66
2022-09-06T17:03:12.144Z,101326.56
2022-09-06T17:05:42.712Z,101327.13
2022-09-06T17:08:12.238Z,101325.72
2022-09-06T17:10:44.302Z,101328.53
2022-09-06T17:13:15.430Z,101322.63
2022-09-06T17:16:15.824Z,101321.47
2022-09-06T17:18:48.527Z,101316.72
2022-09-06T17:21:19.220Z,101321.22
2022-09-06T17:23:49.793Z,101320.66
2022-09-06T17:26:21.693Z,101324.31
2022-09-06T17:28:51.902Z,101324.31
2022-09-06T17:31:25.848Z,101320.66
2022-09-06T17:33:58.183Z,101327.94
2022-09-06T17:36:31.238Z,101333.28
2022-09-06T17:39:07.837Z,101340.34
2022-09-06T17:41:41.344Z,101339.19
2022-09-06T17:44:13.320Z,101345.09
2022-09-06T17:47:02.711Z,101341.72
2022-09-06T17:49:34.440Z,101349.56
2022-09-06T17:52:04.395Z,101342.00
2022-09-06T17:54:33.706Z,101343.38
2022-09-06T17:57:04.210Z,101342.56
2022-09-06T17:59:35.945Z,101358.25
2022-09-06T18:02:06.661Z,101359.09
2022-09-06T18:04:35.902Z,101362.44
2022-09-06T18:07:06.663Z,101369.16
2022-09-06T18:09:38.074Z,101378.97
2022-09-06T18:12:07.093Z,101372.53
2022-09-06T18:14:36.846Z,101375.31
2022-09-06T18:17:10.033Z,101374.19
2022-09-06T18:19:41.239Z,101367.75
2022-09-06T18:22:14.800Z,101372.22
2022-09-06T18:24:45.689Z,101367.97
2022-09-06T18:27:14.788Z,101371.63
2022-09-06T18:29:44.788Z,101371.31
2022-09-06T18:32:16.297Z,101378.88
2022-09-06T18:34:45.323Z,101379.75
2022-09-06T18:37:15.287Z,101381.09
2022-09-06T18:39:45.001Z,101382.78
2022-09-06T18:42:15.204Z,101393.16
2022-09-06T18:44:43.919Z,101397.34
2022-09-06T18:47:15.120Z,101393.13
2022-09-06T18:49:44.852Z,101390.63
2022-09-06T18:52:15.326Z,101396.50
2022-09-06T18:54:46.807Z,101390.88
2022-09-06T18:57:18.202Z,101395.84
2022-09-06T18:59:47.885Z,101404.56
2022-09-06T19:02:21.264Z,101401.75
2022-09-06T19:04:54.648Z,101402.00
2022-09-06T19:07:32.306Z,101401.75
2022-09-06T19:10:01.990Z,101412.66
2022-09-06T19:12:32.525Z,101418.53
2022-09-06T19:15:12.964Z,101417.69
2022-09-06T19:17:46.268Z,101424.13
2022-09-06T19:20:17.912Z,101416.94
2022-09-06T19:22:48.310Z,101415.97
2022-09-06T19:25:19.394Z,101408.66
2022-09-06T19:27:50.624Z,101418.19
2022-09-06T19:30:21.244Z,101414.53
2022-09-06T19:32:54.436Z,101416.47
2022-09-06T19:35:25.010Z,101408.06
2022-09-06T19:37:55.692Z,101413.66
2022-09-06T19:40:25.240Z,101405.50
2022-09-06T19:42:54.933Z,101404.69
2022-09-06T19:45:26.814Z,101400.44
2022-09-06T19:47:58.177Z,101402.41
2022-09-06T19:50:29.350Z,101397.09
2022-09-06T19:52:59.486Z,101391.75
2022-09-06T19:55:33.149Z,101391.44
2022-09-06T19:58:04.604Z,101394.22
2022-09-06T20:00:35.600Z,101395.91
2022-09-06T20:03:20.597Z,101404.81
2022-09-06T20:05:59.580Z,101400.81
2022-09-06T20:08:32.368Z,101396.47
2022-09-06T20:11:02.906Z,101402.91
2022-09-06T20:13:32.733Z,101396.13
2022-09-06T20:16:05.847Z,101399.72
2022-09-06T20:18:36.960Z,101401.34
2022-09-06T20:21:08.348Z,101399.63
2022-09-06T20:23:39.474Z,101401.75
2022-09-06T20:26:12.057Z,101399.47
2022-09-06T20:28:42.378Z,101397.16
2022-09-06T20:31:13.256Z,101399.34
2022-09-06T20:33:49.354Z,101389.81
2022-09-06T20:36:22.294Z,101386.16
2022-09-06T20:38:54.570Z,101384.41
2022-09-06T20:41:28.786Z,101376.25
2022-09-06T20:43:59.220Z,101368.94
2022-09-06T20:46:33.584Z,101361.09
2022-09-06T20:49:12.540Z,101366.59
2022-09-06T20:51:46.343Z,101358.09
2022-09-06T20:54:16.795Z,101356.75
2022-09-06T20:56:45.057Z,101359.53
2022-09-06T20:59:14.633Z,101345.25
2022-09-06T21:01:44.959Z,101342.91
2022-09-06T21:04:17.655Z,101337.84
2022-09-06T21:06:46.706Z,101332.44
2022-09-06T21:09:16.047Z,101331.56
2022-09-06T21:11:45.265Z,101333.63
2022-09-06T21:14:14.930Z,101324.47
2022-09-06T21:16:43.686Z,101326.41
2022-09-06T21:19:13.916Z,101317.69
2022-09-06T21:21:42.200Z,101313.75
2022-09-06T21:24:11.660Z,101305.78
2022-09-06T21:26:40.875Z,101313.88
2022-09-06T21:29:08.848Z,101312.25
2022-09-06T21:31:38.241Z,101299.47
2022-09-06T21:34:11.480Z,101297.44
2022-09-06T21:36:43.684Z,101291.84
2022-09-06T21:39:13.402Z,101283.41
2022-09-06T21:41:43.458Z,101290.78
2022-09-06T21:44:12.357Z,101295.72
2022-09-06T21:46:41.561Z,101290.13
2022-09-06T21:49:11.297Z,101292.13
2022-09-06T21:51:39.755Z,101286.63
2022-09-06T21:54:09.316Z,101294.66
2022-09-06T21:56:39.164Z,101292.13
2022-09-06T21:59:10.510Z,101289.72
2022-09-06T22:01:45.186Z,101292.81
2022-09-06T22:04:21.948Z,101289.75
2022-09-06T22:06:56.416Z,101290.94
2022-09-06T22:09:31.388Z,101285.13
2022-09-06T22:12:03.321Z,101287.06
2022-09-06T22:14:34.353Z,101279.19
2022-09-06T22:17:08.819Z,101287.81
2022-09-06T22:19:39.350Z,101295.09
2022-09-06T22:22:12.750Z,101297.13
2022-09-06T22:24:45.002Z,101293.22
2022-09-06T22:27:16.479Z,101305.22
2022-09-06T22:29:47.060Z,101307.16
2022-09-06T22:32:21.623Z,101304.38
2022-09-06T22:34:52.612Z,101296.88
2022-09-06T22:37:23.472Z,101282.41
2022-09-06T22:39:56.231Z,101286.66
2022-09-06T22:42:27.504Z,101280.13
2022-09-06T22:44:57.650Z,101290.59
2022-09-06T22:47:28.251Z,101295.34
2022-09-06T22:49:58.848Z,101298.91
2022-09-06T22:52:30.546Z,101304.97
2022-09-06T22:55:02.826Z,101316.22
2022-09-06T22:57:32.915Z,101329.66
2022-09-06T23:00:04.792Z,101330.25
2022-09-06T23:02:37.873Z,101349.59
2022-09-06T23:05:07.214Z,101347.41
2022-09-06T23:07:36.764Z,101357.63
2022-09-06T23:10:11.476Z,101351.09
2022-09-06T23:12:43.316Z,101340.56
2022-09-06T23:15:14.927Z,101329.13
2022-09-06T23:17:46.576Z,101325.94
2022-09-06T23:20:18.729Z,101319.59
2022-09-06T23:22:49.542Z,101315.72
2022-09-06T23:25:20.650Z,101304.66
2022-09-06T23:27:51.796Z,101294.94
2022-09-06T23:30:22.638Z,101289.34
2022-09-06T23:32:52.697Z,101275.13
2022-09-06T23:35:23.171Z,101273.19
2022-09-06T23:37:55.234Z,101272.69
2022-09-06T23:40:27.357Z,101276.31
2022-09-06T23:42:57.845Z,101289.19
2022-09-06T23:45:26.727Z,101280.81
2022-09-06T23:47:56.957Z,101286.28
2022-09-06T23:50:25.773Z,101291.19
2022-09-06T23:52:54.699Z,101289.50
2022-09-06T23:55:23.385Z,101292.34
2022-09-06T23:57:55.872Z,101288.72
